Huvudsida
METAR-TAF:

METAR-TAF

Flygplatser :

Marshall, Alaska, USA

latitud: 61-51-51N, longitud: 162-01-34W, höjd: 31 m

Aktuellt väderrapport

Denna rapport gjordes för 29 minuter sedan, klockan 23:56 UTC
Vind 8 kt från väst/nordväst, varierande mellan väst och nord/nordväst
Temperatur 24°C
Fuktighet 36%
Tryck 1013 hPa
Sikt: 16.1 km
Klar himmel

METAR: PADM 172356Z AUTO 29008KT 270V340 10SM CLR 24/08 A2990 RMK AO2 SLP130 T02390083 10239 20172 58016

Tid: 16:25 (00:25 UTC)


TAF: saknas

Aktuella väderrapporter och prognoser från 4000 flygplatser (METAR- och TAF-rapporter).

De tillgängliga stationerna syns som gula och röda prickar på kartan.

För musen över prickarna för att se namnen på stationerna.

Klicka sedan för att få väderrapporter och prognoser.

För att ändra kartan: Klicka på de gröna knapparna med ett svart kors på för att zooma in; den gröna knappen med ett streck på för att zooma ut; eller på de gröna pilarna för angränsande kartor.


METAR-TAF: